createdAt,value
2022-11-05T00:02:59.755Z,26.60
2022-11-05T00:08:25.645Z,25.50
2022-11-05T00:13:51.434Z,26.80
2022-11-05T00:19:07.646Z,25.30
2022-11-05T00:24:33.369Z,26.80
2022-11-05T00:29:40.691Z,25.90
2022-11-05T00:34:47.997Z,24.90
2022-11-05T00:39:55.298Z,27.60
2022-11-05T00:45:02.553Z,24.20
2022-11-05T00:50:11.786Z,26.00
2022-11-05T00:55:19.084Z,25.40
2022-11-05T01:00:28.682Z,22.10
2022-11-05T01:05:39.658Z,26.40
2022-11-05T01:10:48.744Z,25.20
2022-11-05T01:15:57.163Z,27.10
2022-11-05T01:21:13.310Z,25.60
2022-11-05T01:26:20.307Z,25.50
2022-11-05T01:31:29.099Z,24.30
2022-11-05T01:36:36.151Z,25.70
2022-11-05T01:41:43.518Z,26.50
2022-11-05T01:46:50.839Z,25.10
2022-11-05T01:51:59.887Z,25.70
2022-11-05T01:57:11.351Z,25.30
2022-11-05T02:02:19.015Z,27.20
2022-11-05T02:07:29.741Z,28.00
2022-11-05T02:12:38.920Z,26.60
2022-11-05T02:17:53.347Z,28.60
2022-11-05T02:23:36.161Z,28.90
2022-11-05T02:29:06.629Z,28.60
2022-11-05T02:34:22.580Z,17.50
2022-11-05T02:39:45.107Z,17.20
2022-11-05T02:45:00.215Z,11.30
2022-11-05T02:50:15.710Z,7.10
2022-11-05T02:55:31.170Z,6.60
2022-11-05T03:00:49.747Z,6.40
2022-11-05T03:06:16.194Z,4.10
2022-11-05T03:11:27.412Z,5.30
2022-11-05T03:16:40.761Z,5.40
2022-11-05T03:21:53.498Z,4.10
2022-11-05T03:27:05.392Z,4.90
2022-11-05T03:32:15.941Z,5.10
2022-11-05T03:37:27.113Z,4.10
2022-11-05T03:42:38.433Z,4.80
2022-11-05T03:47:48.813Z,4.20
2022-11-05T03:53:00.419Z,5.40
2022-11-05T03:58:08.811Z,4.80
2022-11-05T04:03:15.834Z,4.50
2022-11-05T04:08:40.493Z,4.80
2022-11-05T04:13:47.539Z,4.50
2022-11-05T04:18:54.715Z,5.50
2022-11-05T04:24:10.603Z,4.20
2022-11-05T04:29:35.715Z,5.30
2022-11-05T04:34:42.564Z,4.90
2022-11-05T04:39:49.618Z,5.00
2022-11-05T04:44:57.488Z,4.60
2022-11-05T04:50:05.219Z,4.90
2022-11-05T04:55:12.969Z,4.70
2022-11-05T05:00:22.344Z,5.20
2022-11-05T05:05:30.965Z,5.10
2022-11-05T05:10:38.141Z,4.80
2022-11-05T05:21:08.292Z,5.30
2022-11-05T05:26:15.548Z,5.40
2022-11-05T05:31:23.324Z,4.60
2022-11-05T05:36:30.978Z,5.30
2022-11-05T05:41:38.490Z,3.00
2022-11-05T05:46:45.398Z,4.80
2022-11-05T05:51:52.770Z,4.00
2022-11-05T05:56:59.772Z,3.60
2022-11-05T06:07:12.437Z,3.30
2022-11-05T06:12:19.326Z,3.50
2022-11-05T06:17:26.950Z,3.50
2022-11-05T06:22:34.547Z,4.00
2022-11-05T06:27:41.948Z,3.70
2022-11-05T06:32:48.899Z,5.20
2022-11-05T06:37:59.887Z,4.90
2022-11-05T06:43:07.019Z,5.20
2022-11-05T06:53:19.471Z,5.00
2022-11-05T06:58:28.155Z,6.00
2022-11-05T07:03:35.453Z,6.10
2022-11-05T07:08:42.759Z,5.10
2022-11-05T07:13:49.697Z,5.00
2022-11-05T07:18:58.341Z,4.80
2022-11-05T07:24:06.334Z,5.70
2022-11-05T07:29:13.430Z,6.00
2022-11-05T07:39:26.238Z,5.00
2022-11-05T07:44:33.620Z,5.50
2022-11-05T07:49:40.526Z,5.30
2022-11-05T07:54:47.596Z,5.00
2022-11-05T08:05:00.096Z,3.60
2022-11-05T08:15:13.693Z,3.80
2022-11-05T08:20:21.616Z,5.90
2022-11-05T08:25:29.484Z,6.00
2022-11-05T08:30:37.813Z,5.30
2022-11-05T08:35:45.542Z,5.00
2022-11-05T08:40:59.324Z,4.60
2022-11-05T08:46:07.034Z,4.80
2022-11-05T08:51:14.219Z,5.60
2022-11-05T08:56:21.943Z,5.70
2022-11-05T09:01:29.099Z,6.70
2022-11-05T09:06:36.776Z,7.90
2022-11-05T09:12:10.408Z,7.20
2022-11-05T09:17:19.734Z,7.70
2022-11-05T09:22:27.458Z,7.90
2022-11-05T09:27:34.694Z,7.80
2022-11-05T09:32:42.294Z,6.10
2022-11-05T09:37:49.509Z,6.60
2022-11-05T09:42:57.311Z,7.40
2022-11-05T09:48:11.889Z,7.00
2022-11-05T09:53:21.173Z,4.70
2022-11-05T09:58:38.568Z,7.30
2022-11-05T10:03:49.554Z,6.20
2022-11-05T10:09:02.504Z,6.50
2022-11-05T10:14:19.293Z,7.70
2022-11-05T10:19:29.910Z,6.20
2022-11-05T10:24:44.485Z,8.20
2022-11-05T10:29:53.788Z,8.00
2022-11-05T10:35:03.685Z,7.00
2022-11-05T10:40:21.115Z,8.30
2022-11-05T10:50:40.066Z,7.20
2022-11-05T10:55:50.991Z,5.90
2022-11-05T11:01:12.825Z,6.90
2022-11-05T11:06:27.547Z,7.60
2022-11-05T11:11:37.893Z,8.20
2022-11-05T11:16:46.760Z,8.80
2022-11-05T11:27:36.571Z,8.20
2022-11-05T11:32:43.993Z,9.50
2022-11-05T11:37:54.034Z,8.90
2022-11-05T11:43:05.703Z,10.60
2022-11-05T11:48:19.634Z,9.40
2022-11-05T11:53:42.315Z,8.70
2022-11-05T11:58:51.787Z,7.20
2022-11-05T12:04:08.466Z,10.30
2022-11-05T12:09:24.672Z,8.70
2022-11-05T12:14:46.249Z,9.90
2022-11-05T12:20:23.416Z,9.40
2022-11-05T12:25:38.292Z,9.40
2022-11-05T12:30:54.175Z,10.00
2022-11-05T12:36:12.153Z,9.50
2022-11-05T12:41:28.708Z,9.40
2022-11-05T12:46:46.237Z,11.60
2022-11-05T12:52:08.080Z,10.90
2022-11-05T12:57:18.021Z,11.50
2022-11-05T13:02:30.755Z,9.20
2022-11-05T13:07:44.946Z,7.70
2022-11-05T13:13:00.410Z,9.30
2022-11-05T13:18:13.429Z,10.90
2022-11-05T13:23:32.355Z,10.30
2022-11-05T13:28:48.132Z,10.40
2022-11-05T13:33:56.630Z,10.20
2022-11-05T13:39:12.642Z,9.90
2022-11-05T13:44:39.940Z,9.30
2022-11-05T13:50:19.715Z,11.70
2022-11-05T13:55:47.866Z,10.20
2022-11-05T14:01:08.623Z,10.40
2022-11-05T14:06:24.907Z,10.50
2022-11-05T14:11:35.617Z,8.40
2022-11-05T14:16:53.878Z,10.20
2022-11-05T14:22:01.655Z,11.10
2022-11-05T14:27:43.664Z,10.40
2022-11-05T14:32:53.323Z,10.70
2022-11-05T14:38:02.417Z,11.20
2022-11-05T14:43:19.061Z,11.80
2022-11-05T14:48:40.778Z,12.90
2022-11-05T14:53:48.583Z,8.90
2022-11-05T14:59:41.559Z,12.00
2022-11-05T15:04:49.541Z,9.90
2022-11-05T15:10:09.018Z,11.10
2022-11-05T15:15:24.886Z,11.50
2022-11-05T15:20:40.488Z,11.50
2022-11-05T15:25:53.774Z,11.50
2022-11-05T15:31:04.446Z,11.30
2022-11-05T15:36:24.464Z,9.70
2022-11-05T15:41:34.843Z,11.30
2022-11-05T15:46:41.767Z,11.40
2022-11-05T15:56:58.064Z,11.70
2022-11-05T16:02:20.898Z,11.20
2022-11-05T16:07:29.105Z,11.30
2022-11-05T16:12:38.553Z,10.00
2022-11-05T16:17:52.108Z,11.80
2022-11-05T16:28:05.780Z,7.20
2022-11-05T16:33:16.551Z,10.10
2022-11-05T16:38:24.775Z,8.20
2022-11-05T16:43:32.343Z,9.80
2022-11-05T16:48:39.581Z,8.30
2022-11-05T16:53:48.240Z,6.10
2022-11-05T16:58:55.352Z,10.00
2022-11-05T17:04:02.537Z,6.10
2022-11-05T17:09:09.787Z,7.20
2022-11-05T17:14:17.208Z,9.00
2022-11-05T17:19:24.425Z,6.40
2022-11-05T17:24:31.543Z,7.30
2022-11-05T17:29:39.323Z,8.70
2022-11-05T17:34:46.902Z,8.90
2022-11-05T17:39:55.170Z,6.00
2022-11-05T17:45:02.431Z,5.80
2022-11-05T17:50:13.051Z,7.60
2022-11-05T17:55:21.064Z,6.40
2022-11-05T18:00:28.651Z,5.80
2022-11-05T18:05:38.398Z,8.30
2022-11-05T18:10:45.701Z,9.20
2022-11-05T18:15:54.957Z,8.50
2022-11-05T18:21:02.236Z,9.00
2022-11-05T18:26:16.844Z,9.70
2022-11-05T18:31:26.846Z,9.50
2022-11-05T18:36:35.060Z,8.80
2022-11-05T18:41:42.520Z,6.30
2022-11-05T18:46:59.590Z,5.30
2022-11-05T18:52:07.829Z,7.60
2022-11-05T18:57:15.185Z,8.20
2022-11-05T19:02:22.605Z,7.40
2022-11-05T19:07:30.000Z,7.20
2022-11-05T19:12:37.152Z,8.50
2022-11-05T19:22:50.862Z,8.40
2022-11-05T19:27:58.790Z,8.10
2022-11-05T19:33:06.261Z,8.40
2022-11-05T19:38:14.008Z,8.10
2022-11-05T19:43:21.832Z,8.00
2022-11-05T19:48:28.880Z,7.60
2022-11-05T19:58:42.511Z,8.10
2022-11-05T20:03:50.379Z,7.30
2022-11-05T20:09:29.595Z,8.00
2022-11-05T20:14:27.747Z,9.30
2022-11-05T20:19:35.535Z,10.10
2022-11-05T20:24:43.105Z,9.80
2022-11-05T20:29:50.500Z,8.70
2022-11-05T20:34:58.116Z,9.40
2022-11-05T20:45:12.295Z,6.80
2022-11-05T20:50:19.526Z,6.70
2022-11-05T20:55:26.839Z,6.50
2022-11-05T21:05:39.920Z,6.70
2022-11-05T21:10:51.279Z,7.30
2022-11-05T21:16:00.498Z,8.30
2022-11-05T21:21:10.070Z,8.00
2022-11-05T21:26:18.723Z,9.10
2022-11-05T21:31:25.748Z,7.70
2022-11-05T21:36:33.104Z,7.30
2022-11-05T21:41:40.296Z,7.10
2022-11-05T21:46:47.376Z,8.20
2022-11-05T21:52:12.714Z,9.10
2022-11-05T21:57:38.544Z,9.70
2022-11-05T22:02:46.819Z,8.00
2022-11-05T22:07:54.172Z,8.00
2022-11-05T22:18:07.036Z,9.30
2022-11-05T22:28:19.792Z,8.20
2022-11-05T22:33:27.201Z,8.10
2022-11-05T22:43:40.543Z,9.70
2022-11-05T22:48:48.839Z,9.30
2022-11-05T22:53:56.534Z,9.90
2022-11-05T22:59:04.574Z,9.20
2022-11-05T23:04:12.502Z,10.70
2022-11-05T23:09:39.363Z,9.80
2022-11-05T23:14:47.118Z,10.00
2022-11-05T23:20:12.036Z,9.20
2022-11-05T23:25:22.033Z,9.70
2022-11-05T23:30:30.265Z,10.30
2022-11-05T23:35:56.991Z,10.30
2022-11-05T23:41:22.864Z,10.40
2022-11-05T23:46:48.602Z,9.30
2022-11-05T23:51:55.793Z,11.00
2022-11-05T23:57:03.827Z,11.00
